createdAt,value
2022-08-21T00:00:43.526Z,5
2022-08-21T00:01:38.814Z,5.14286
2022-08-21T00:02:38.884Z,4.85714
2022-08-21T00:03:38.901Z,4.5
2022-08-21T00:04:38.942Z,4.85714
2022-08-21T00:05:38.976Z,5.21429
2022-08-21T00:06:39.021Z,4.71429
2022-08-21T00:07:39.058Z,4.71429
2022-08-21T00:08:39.094Z,4.71429
2022-08-21T00:09:39.134Z,4.71429
2022-08-21T00:10:39.181Z,4.64286
2022-08-21T00:11:39.218Z,5
2022-08-21T00:12:39.264Z,5.21429
2022-08-21T00:13:39.306Z,5.14286
2022-08-21T00:14:39.346Z,5.21429
2022-08-21T00:15:39.389Z,4.92857
2022-08-21T00:16:39.411Z,5.14286
2022-08-21T00:17:39.473Z,4.64286
2022-08-21T00:18:39.495Z,4.64286
2022-08-21T00:19:39.530Z,4.71429
2022-08-21T00:20:39.563Z,4.64286
2022-08-21T00:21:39.602Z,4.71429
2022-08-21T00:22:39.642Z,3.92857
2022-08-21T00:23:39.677Z,5.35714
2022-08-21T00:24:39.716Z,4.42857
2022-08-21T00:25:39.750Z,4.35714
2022-08-21T00:26:39.813Z,4.64286
2022-08-21T00:27:39.829Z,4.14286
2022-08-21T00:28:39.876Z,4.71429
2022-08-21T00:29:39.914Z,4.35714
2022-08-21T00:30:39.955Z,4.42857
2022-08-21T00:31:40.026Z,4.35714
2022-08-21T00:32:40.039Z,9.64286
2022-08-21T00:33:40.072Z,4.71429
2022-08-21T00:34:40.113Z,4.14286
2022-08-21T00:35:40.154Z,4.5
2022-08-21T00:36:40.218Z,4.35714
2022-08-21T00:37:40.255Z,4.42857
2022-08-21T00:38:40.272Z,4.14286
2022-08-21T00:39:40.371Z,4.42857
2022-08-21T00:40:40.353Z,4.14286
2022-08-21T00:41:40.393Z,4.5
2022-08-21T00:42:40.421Z,4.64286
2022-08-21T00:43:40.475Z,4.21429
2022-08-21T00:44:40.502Z,4
2022-08-21T00:45:40.538Z,4
2022-08-21T00:46:40.575Z,4.35714
2022-08-21T00:47:40.632Z,4.21429
2022-08-21T00:48:40.653Z,4.5
2022-08-21T00:49:40.701Z,4
2022-08-21T00:50:40.745Z,4.35714
2022-08-21T00:51:40.785Z,3.71429
2022-08-21T00:52:40.821Z,4.42857
2022-08-21T00:53:40.860Z,4.21429
2022-08-21T00:54:40.900Z,4.21429
2022-08-21T00:55:40.940Z,4
2022-08-21T00:56:40.983Z,4.14286
2022-08-21T00:57:41.049Z,4.21429
2022-08-21T00:58:41.055Z,4.71429
2022-08-21T00:59:41.098Z,4.21429
2022-08-21T01:00:41.232Z,4.42857
2022-08-21T01:01:41.244Z,4.5
2022-08-21T01:02:41.223Z,4.5
2022-08-21T01:03:44.106Z,4.64286
2022-08-21T01:04:41.308Z,4.42857
2022-08-21T01:05:41.336Z,4.5
2022-08-21T01:06:41.400Z,4.5
2022-08-21T01:07:41.426Z,4.42857
2022-08-21T01:08:46.866Z,4.42857
2022-08-21T01:09:41.503Z,3.92857
2022-08-21T01:10:41.532Z,4.21429
2022-08-21T01:11:41.578Z,4.5
2022-08-21T01:12:41.614Z,4.64286
2022-08-21T01:13:41.652Z,4.42857
2022-08-21T01:14:41.692Z,4.21429
2022-08-21T01:15:41.736Z,4.21429
2022-08-21T01:16:41.792Z,4.21429
2022-08-21T01:17:41.811Z,4.14286
2022-08-21T01:18:41.852Z,4.35714
2022-08-21T01:19:41.905Z,4.42857
2022-08-21T01:20:41.974Z,4.14286
2022-08-21T01:21:41.978Z,4.92857
2022-08-21T01:22:42.032Z,4.5
2022-08-21T01:23:42.063Z,4.42857
2022-08-21T01:24:42.096Z,4
2022-08-21T01:25:42.129Z,4.21429
2022-08-21T01:26:42.172Z,4.64286
2022-08-21T01:27:42.209Z,4.42857
2022-08-21T01:28:42.270Z,4.71429
2022-08-21T01:29:42.283Z,4.5
2022-08-21T01:30:42.324Z,4.14286
2022-08-21T01:31:42.365Z,5.71429
2022-08-21T01:32:42.419Z,4.64286
2022-08-21T01:33:42.442Z,4.42857
2022-08-21T01:34:42.485Z,4.71429
2022-08-21T01:35:42.524Z,4.64286
2022-08-21T01:36:42.562Z,4.5
2022-08-21T01:37:42.614Z,4.64286
2022-08-21T01:38:42.631Z,4.5
2022-08-21T01:39:42.698Z,4.35714
2022-08-21T01:40:42.700Z,4.64286
2022-08-21T01:41:42.745Z,4.71429
2022-08-21T01:42:42.805Z,4.14286
2022-08-21T01:43:42.817Z,4.42857
2022-08-21T01:44:42.854Z,4.42857
2022-08-21T01:45:42.897Z,4.5
2022-08-21T01:46:42.953Z,4.71429
2022-08-21T01:47:42.992Z,4.5
2022-08-21T01:48:43.009Z,4.64286
2022-08-21T01:49:43.047Z,4.5
2022-08-21T01:50:43.075Z,4.21429
2022-08-21T01:51:43.135Z,4.14286
2022-08-21T01:52:43.142Z,4.35714
2022-08-21T01:53:43.179Z,3.85714
2022-08-21T01:54:43.221Z,4.35714
2022-08-21T01:55:43.252Z,4
2022-08-21T01:56:43.287Z,4.42857
2022-08-21T01:57:43.330Z,4.42857
2022-08-21T01:58:43.392Z,4.35714
2022-08-21T01:59:43.401Z,4.21429
2022-08-21T02:00:43.485Z,4.21429
2022-08-21T02:01:43.487Z,4.42857
2022-08-21T02:02:43.520Z,4
2022-08-21T02:03:43.561Z,4.92857
2022-08-21T02:04:43.602Z,4.42857
2022-08-21T02:05:43.643Z,4.14286
2022-08-21T02:06:43.706Z,3.92857
2022-08-21T02:07:43.718Z,4.14286
2022-08-21T02:08:43.755Z,3.64286
2022-08-21T02:09:43.795Z,4.5
2022-08-21T02:10:43.839Z,3.92857
2022-08-21T02:11:43.893Z,4.21429
2022-08-21T02:12:43.904Z,4.14286
2022-08-21T02:13:43.949Z,4.21429
2022-08-21T02:14:43.986Z,4.42857
2022-08-21T02:15:44.026Z,4.14286
2022-08-21T02:16:44.065Z,4.42857
2022-08-21T02:17:44.108Z,4.14286
2022-08-21T02:18:44.147Z,4.64286
2022-08-21T02:19:44.182Z,4.42857
2022-08-21T02:20:44.225Z,4
2022-08-21T02:21:44.267Z,3.92857
2022-08-21T02:22:44.306Z,4
2022-08-21T02:23:44.347Z,4.14286
2022-08-21T02:24:54.621Z,4.42857
2022-08-21T02:25:44.422Z,3.92857
2022-08-21T02:26:44.461Z,3.92857
2022-08-21T02:27:44.500Z,4.42857
2022-08-21T02:28:44.543Z,4.5
2022-08-21T02:29:44.583Z,4
2022-08-21T02:30:44.624Z,4
2022-08-21T02:31:44.663Z,3.92857
2022-08-21T02:32:44.697Z,4.42857
2022-08-21T02:33:44.734Z,3.92857
2022-08-21T02:34:44.771Z,4.35714
2022-08-21T02:35:44.816Z,4.35714
2022-08-21T02:36:44.879Z,4.14286
2022-08-21T02:37:44.899Z,4.14286
2022-08-21T02:38:44.939Z,3.92857
2022-08-21T02:39:45.030Z,4.21429
2022-08-21T02:40:48.230Z,4.21429
2022-08-21T02:41:45.058Z,4.14286
2022-08-21T02:42:45.098Z,4
2022-08-21T02:43:45.135Z,4
2022-08-21T02:44:45.178Z,4.5
2022-08-21T02:45:45.220Z,4.42857
2022-08-21T02:46:45.290Z,4.21429
2022-08-21T02:47:45.310Z,4.14286
2022-08-21T02:48:45.347Z,3.64286
2022-08-21T02:49:45.386Z,4.14286
2022-08-21T02:50:45.423Z,3.85714
2022-08-21T02:51:45.481Z,4.14286
2022-08-21T02:52:45.504Z,4.35714
2022-08-21T02:53:45.545Z,4
2022-08-21T02:54:45.582Z,4.14286
2022-08-21T02:55:45.622Z,3.85714
2022-08-21T02:56:45.655Z,4
2022-08-21T02:57:45.719Z,4
2022-08-21T02:58:45.737Z,3.64286
2022-08-21T02:59:45.779Z,4.14286
2022-08-21T03:00:45.820Z,3.92857
2022-08-21T03:01:45.940Z,3.85714
2022-08-21T03:02:45.893Z,3.71429
2022-08-21T03:03:45.935Z,4.21429
2022-08-21T03:04:46.851Z,3.85714
2022-08-21T03:05:46.012Z,4.21429
2022-08-21T03:06:46.073Z,4.14286
2022-08-21T03:07:46.093Z,3.85714
2022-08-21T03:08:46.123Z,4
2022-08-21T03:09:55.826Z,3.92857
2022-08-21T03:10:46.194Z,4.42857
2022-08-21T03:11:46.230Z,3.92857
2022-08-21T03:12:46.273Z,3.42857
2022-08-21T03:13:46.329Z,3.71429
2022-08-21T03:14:46.348Z,3.71429
2022-08-21T03:15:46.386Z,3.5
2022-08-21T03:16:46.433Z,3.5
2022-08-21T03:17:46.465Z,3.92857
2022-08-21T03:18:46.542Z,3.71429
2022-08-21T03:19:46.567Z,3.92857
2022-08-21T03:20:46.587Z,3.64286
2022-08-21T03:21:46.625Z,3.35714
2022-08-21T03:22:52.822Z,3.71429
2022-08-21T03:23:46.720Z,3.42857
2022-08-21T03:24:46.746Z,3.71429
2022-08-21T03:25:46.785Z,3.64286
2022-08-21T03:26:46.830Z,4.42857
2022-08-21T03:27:46.922Z,3.14286
2022-08-21T03:28:46.917Z,3.64286
2022-08-21T03:29:46.948Z,3.5
2022-08-21T03:30:46.989Z,3.71429
2022-08-21T03:31:47.026Z,3.42857
2022-08-21T03:32:47.069Z,3.85714
2022-08-21T03:33:47.112Z,3.35714
2022-08-21T03:34:47.152Z,3.42857
2022-08-21T03:35:47.190Z,3.35714
2022-08-21T03:36:47.230Z,3.71429
2022-08-21T03:37:47.269Z,3.42857
2022-08-21T03:38:47.305Z,4
2022-08-21T03:39:47.421Z,3
2022-08-21T03:40:47.411Z,3.5
2022-08-21T03:41:47.430Z,3.5
2022-08-21T03:42:47.475Z,3.21429
2022-08-21T03:43:47.507Z,3.21429
2022-08-21T03:44:47.556Z,3.14286
2022-08-21T03:45:47.642Z,3.42857
2022-08-21T03:46:47.625Z,3.42857
2022-08-21T03:47:47.670Z,3.21429
2022-08-21T03:48:47.705Z,3.71429
2022-08-21T03:49:47.746Z,4.5
2022-08-21T03:50:47.803Z,3.21429
2022-08-21T03:51:47.824Z,3.21429
2022-08-21T03:52:47.865Z,3.42857
2022-08-21T03:53:47.892Z,3.14286
2022-08-21T03:54:47.931Z,3.5
2022-08-21T03:55:47.994Z,3.21429
2022-08-21T03:56:48.023Z,3.42857
2022-08-21T03:57:48.044Z,3.64286
2022-08-21T03:58:48.084Z,3.21429
2022-08-21T03:59:48.121Z,3.42857
2022-08-21T04:00:48.161Z,3.64286
2022-08-21T04:01:48.272Z,3.42857
2022-08-21T04:02:48.237Z,3.21429
2022-08-21T04:03:48.279Z,4
2022-08-21T04:04:48.319Z,3.35714
2022-08-21T04:05:48.357Z,3.42857
2022-08-21T04:06:48.399Z,3.35714
2022-08-21T04:07:48.436Z,3.5
2022-08-21T04:08:48.481Z,3.35714
2022-08-21T04:09:48.525Z,3.14286
2022-08-21T04:10:48.568Z,3
2022-08-21T04:11:48.602Z,3.35714
2022-08-21T04:12:48.647Z,3.21429
2022-08-21T04:13:48.682Z,3.21429
2022-08-21T04:14:48.724Z,3.35714
2022-08-21T04:15:48.765Z,3.42857
2022-08-21T04:16:48.803Z,3.35714
2022-08-21T04:17:48.844Z,3
2022-08-21T04:18:48.886Z,3.35714
2022-08-21T04:19:53.566Z,3.21429
2022-08-21T04:20:50.330Z,3.42857
2022-08-21T04:21:49.010Z,3.42857
2022-08-21T04:22:49.051Z,3.42857
2022-08-21T04:23:49.097Z,3.21429
2022-08-21T04:24:49.144Z,3.85714
2022-08-21T04:25:49.179Z,3.21429
2022-08-21T04:26:49.223Z,3
2022-08-21T04:27:49.266Z,3.35714
2022-08-21T04:28:49.298Z,3.21429
2022-08-21T04:29:49.342Z,3.14286
2022-08-21T04:30:49.382Z,3.35714
2022-08-21T04:31:49.423Z,3.35714
2022-08-21T04:32:49.793Z,3
2022-08-21T04:33:49.499Z,3.42857
2022-08-21T04:34:49.576Z,3.35714
2022-08-21T04:35:49.614Z,4.14286
2022-08-21T04:36:49.630Z,3
2022-08-21T04:37:49.691Z,2.92857
2022-08-21T04:38:49.711Z,3.21429
2022-08-21T04:39:53.464Z,3.21429
2022-08-21T04:40:49.797Z,3
2022-08-21T04:41:49.832Z,3.14286
2022-08-21T04:42:49.873Z,2.71429
2022-08-21T04:43:49.914Z,2.92857
2022-08-21T04:44:49.976Z,3.35714
2022-08-21T04:45:49.994Z,3.21429
2022-08-21T04:46:50.033Z,2.85714
2022-08-21T04:47:52.677Z,3.5
2022-08-21T04:48:50.114Z,3.5
2022-08-21T04:49:50.156Z,3.21429
2022-08-21T04:50:50.191Z,2.92857
2022-08-21T04:51:50.231Z,3.5
2022-08-21T04:52:50.264Z,2.71429
2022-08-21T04:53:50.298Z,3.14286
2022-08-21T04:54:54.734Z,2.85714
2022-08-21T04:55:50.374Z,3.14286
2022-08-21T04:56:50.416Z,4.14286
2022-08-21T04:57:50.452Z,3.14286
2022-08-21T04:58:50.494Z,3.14286
2022-08-21T04:59:50.532Z,3.14286
2022-08-21T05:00:50.580Z,2.64286
2022-08-21T05:01:50.638Z,3.5
2022-08-21T05:02:50.663Z,3.14286
2022-08-21T05:03:50.699Z,2.64286
2022-08-21T05:04:50.741Z,2.92857
2022-08-21T05:05:50.778Z,3.5
2022-08-21T05:06:50.813Z,2.64286
2022-08-21T05:07:50.852Z,2.71429
2022-08-21T05:08:50.895Z,2.85714
2022-08-21T05:09:50.935Z,3.14286
2022-08-21T05:10:50.975Z,2.92857
2022-08-21T05:11:51.024Z,2.85714
2022-08-21T05:12:51.152Z,2.64286
2022-08-21T05:13:52.366Z,3.64286
2022-08-21T05:14:51.139Z,2.85714
2022-08-21T05:15:51.179Z,2.85714
2022-08-21T05:16:51.213Z,3.14286
2022-08-21T05:17:53.631Z,2.85714
2022-08-21T05:18:51.285Z,2.85714
2022-08-21T05:19:51.327Z,2.85714
2022-08-21T05:20:51.368Z,3
2022-08-21T05:21:51.399Z,3
2022-08-21T05:22:51.513Z,2.71429
2022-08-21T05:23:51.489Z,2.92857
2022-08-21T05:24:51.542Z,3
2022-08-21T05:25:51.576Z,2.71429
2022-08-21T05:26:51.630Z,4
2022-08-21T05:27:52.045Z,2.92857
2022-08-21T05:28:51.692Z,3
2022-08-21T05:29:51.730Z,2.71429
2022-08-21T05:30:51.768Z,3.21429
2022-08-21T05:31:51.825Z,2.71429
2022-08-21T05:32:51.927Z,2.85714
2022-08-21T05:33:52.155Z,2.64286
2022-08-21T05:34:51.928Z,2.71429
2022-08-21T05:35:51.977Z,2.64286
2022-08-21T05:36:52.029Z,2.42857
2022-08-21T05:37:52.059Z,2.71429
2022-08-21T05:38:52.105Z,2.35714
2022-08-21T05:40:04.791Z,2.21429
2022-08-21T05:40:52.257Z,2.64286
2022-08-21T05:41:52.224Z,3.21429
2022-08-21T05:42:54.487Z,2.5
2022-08-21T05:43:52.305Z,3.35714
2022-08-21T05:44:52.349Z,2.85714
2022-08-21T05:45:52.409Z,2.35714
2022-08-21T05:46:52.423Z,2.85714
2022-08-21T05:47:52.457Z,3.14286
2022-08-21T05:48:52.536Z,2.71429
2022-08-21T05:49:52.539Z,2.71429
2022-08-21T05:50:52.574Z,2.85714
2022-08-21T05:51:52.617Z,3
2022-08-21T05:52:52.649Z,2.85714
2022-08-21T05:53:52.687Z,2.85714
2022-08-21T05:54:52.725Z,2.64286
2022-08-21T05:55:52.765Z,2.92857
2022-08-21T05:56:52.802Z,2.42857
2022-08-21T05:57:52.843Z,2.35714
2022-08-21T05:58:52.887Z,2.42857
2022-08-21T05:59:52.917Z,2.64286
2022-08-21T06:00:52.962Z,2.5
2022-08-21T06:01:53.076Z,2.42857
2022-08-21T06:02:53.035Z,2.5
2022-08-21T06:03:53.071Z,3.14286
2022-08-21T06:04:53.111Z,3.64286
2022-08-21T06:05:53.153Z,2.64286
2022-08-21T06:06:53.193Z,2.5
2022-08-21T06:07:53.233Z,2.35714
2022-08-21T06:08:53.269Z,3.5
2022-08-21T06:09:53.300Z,2.85714
2022-08-21T06:10:53.339Z,2.64286
2022-08-21T06:11:53.380Z,2.64286
2022-08-21T06:12:53.420Z,2.71429
2022-08-21T06:13:53.461Z,2.42857
2022-08-21T06:14:53.498Z,2.5
2022-08-21T06:15:53.538Z,2.71429
2022-08-21T06:16:53.577Z,2.71429
2022-08-21T06:17:53.622Z,2.71429
2022-08-21T06:18:53.667Z,3.5
2022-08-21T06:19:53.703Z,2.92857
2022-08-21T06:20:53.766Z,2.5
2022-08-21T06:21:53.787Z,2.92857
2022-08-21T06:22:53.843Z,2.92857
2022-08-21T06:23:53.855Z,2.71429
2022-08-21T06:24:53.893Z,2.5
2022-08-21T06:25:53.933Z,2.92857
2022-08-21T06:26:53.969Z,2.64286
2022-08-21T06:27:54.008Z,3.35714
2022-08-21T06:28:54.048Z,2.35714
2022-08-21T06:29:54.091Z,2.71429
2022-08-21T06:30:54.127Z,2.71429
2022-08-21T06:31:54.167Z,2.5
2022-08-21T06:32:54.222Z,2.92857
2022-08-21T06:33:54.242Z,2.5
2022-08-21T06:34:54.297Z,2.42857
2022-08-21T06:35:54.333Z,2.42857
2022-08-21T06:36:54.370Z,2.71429
2022-08-21T06:37:54.401Z,2.64286
2022-08-21T06:38:54.437Z,2.5
2022-08-21T06:39:54.509Z,2.21429
2022-08-21T06:42:54.672Z,2.64286
2022-08-21T06:43:54.660Z,3.14286
2022-08-21T06:44:54.674Z,955.429
2022-08-21T06:45:54.709Z,350
2022-08-21T06:46:54.733Z,578.143
2022-08-21T06:47:54.768Z,752.357
2022-08-21T06:48:54.824Z,754
2022-08-21T06:49:54.829Z,524.643
2022-08-21T06:50:54.888Z,717.643
2022-08-21T06:51:54.915Z,581.857
2022-08-21T06:52:54.938Z,848.643
2022-08-21T06:53:54.994Z,673.214
2022-08-21T06:54:55.012Z,499.714
2022-08-21T06:55:55.056Z,450.643
2022-08-21T06:56:55.083Z,392.214
2022-08-21T06:57:55.122Z,354.857
2022-08-21T06:58:55.157Z,312.214
2022-08-21T06:59:55.185Z,273
2022-08-21T07:01:00.154Z,249.214
2022-08-21T07:01:55.345Z,316.214
2022-08-21T07:02:55.358Z,398.857
2022-08-21T07:03:55.336Z,534.5
2022-08-21T07:04:55.374Z,462.5
2022-08-21T07:05:55.414Z,376.143
2022-08-21T07:06:55.491Z,328.857
2022-08-21T07:07:55.490Z,290.929
2022-08-21T07:08:55.518Z,252.357
2022-08-21T07:09:55.560Z,219.714
2022-08-21T07:10:55.591Z,366.714
2022-08-21T07:11:55.657Z,312
2022-08-21T07:13:01.048Z,333.5
2022-08-21T07:13:55.689Z,383.714
2022-08-21T07:14:55.731Z,427.357
2022-08-21T07:15:58.241Z,529.714
2022-08-21T07:16:55.829Z,471.357
2022-08-21T07:17:55.846Z,487.214
2022-08-21T07:18:55.877Z,360.857
2022-08-21T07:19:55.918Z,321.857
2022-08-21T07:20:55.950Z,284.214
2022-08-21T07:21:56.018Z,245.429
2022-08-21T07:22:56.148Z,215.929
2022-08-21T07:23:56.056Z,195.714
2022-08-21T07:24:56.098Z,169.429
2022-08-21T07:25:56.131Z,146.643
2022-08-21T07:26:56.168Z,135.929
2022-08-21T07:27:56.214Z,112.714
2022-08-21T07:28:56.248Z,102.929
2022-08-21T07:29:56.284Z,81.1429
2022-08-21T07:30:56.324Z,59.2143
2022-08-21T07:31:56.359Z,59
2022-08-21T07:32:56.406Z,62.1429
2022-08-21T07:33:56.439Z,54.4286
2022-08-21T07:34:56.481Z,48.6429
2022-08-21T07:35:56.541Z,44.1429
2022-08-21T07:36:56.555Z,38.3571
2022-08-21T07:37:56.587Z,28.9286
2022-08-21T07:38:56.628Z,36.4286
2022-08-21T07:39:56.696Z,34.9286
2022-08-21T07:40:56.695Z,33.9286
2022-08-21T07:41:56.732Z,37.8571
2022-08-21T07:42:56.961Z,24
2022-08-21T07:43:56.797Z,29.5
2022-08-21T07:44:56.832Z,25.3571
2022-08-21T07:45:56.872Z,20.3571
2022-08-21T07:46:56.930Z,19.6429
2022-08-21T07:47:57.664Z,18.8571
2022-08-21T07:48:56.984Z,17.6429
2022-08-21T07:49:57.049Z,12.6429
2022-08-21T07:50:57.062Z,15.3571
2022-08-21T07:51:57.095Z,17.5
2022-08-21T07:52:57.233Z,17.2143
2022-08-21T07:53:57.174Z,13.3571
2022-08-21T07:54:57.215Z,14.6429
2022-08-21T07:55:57.251Z,13.2143
2022-08-21T07:56:57.313Z,13.1429
2022-08-21T07:57:57.322Z,12.4286
2022-08-21T07:58:57.364Z,10.5
2022-08-21T07:59:57.401Z,10.6429
2022-08-21T08:00:57.460Z,9.5
2022-08-21T08:01:57.487Z,10.1429
2022-08-21T08:02:57.749Z,9.5
2022-08-21T08:03:57.565Z,8.5
2022-08-21T08:04:57.603Z,8.64286
2022-08-21T08:05:57.633Z,6.42857
2022-08-21T08:06:57.674Z,6.5
2022-08-21T08:07:57.718Z,7
2022-08-21T08:08:57.754Z,6.35714
2022-08-21T08:09:57.793Z,6.71429
2022-08-21T08:10:57.827Z,6.42857
2022-08-21T08:11:57.874Z,5
2022-08-21T08:12:58.147Z,5.71429
2022-08-21T08:13:57.935Z,6
2022-08-21T08:14:57.977Z,4.64286
2022-08-21T08:15:58.015Z,5.42857
2022-08-21T08:16:58.059Z,4.64286
2022-08-21T08:17:58.105Z,4.42857
2022-08-21T08:18:58.137Z,4.35714
2022-08-21T08:19:58.177Z,4
2022-08-21T08:20:58.221Z,3.42857
2022-08-21T08:21:58.259Z,3.21429
2022-08-21T08:22:58.433Z,3.5
2022-08-21T08:23:58.344Z,3.21429
2022-08-21T08:24:58.387Z,3.21429
2022-08-21T08:25:58.421Z,3.85714
2022-08-21T08:26:58.465Z,3.5
2022-08-21T08:27:58.499Z,3.5
2022-08-21T08:28:58.537Z,3.5
2022-08-21T08:29:58.582Z,3.14286
2022-08-21T08:30:58.633Z,3.35714
2022-08-21T08:31:58.667Z,3.35714
2022-08-21T08:32:58.853Z,3.14286
2022-08-21T08:33:58.742Z,3.35714
2022-08-21T08:34:58.784Z,89.3571
2022-08-21T08:36:01.291Z,643.857
2022-08-21T08:36:58.860Z,352.357
2022-08-21T08:37:58.890Z,839.5
2022-08-21T08:38:58.924Z,852.643
2022-08-21T08:39:59.041Z,795.929
2022-08-21T08:40:59.003Z,599.429
2022-08-21T08:41:59.043Z,535.214
2022-08-21T08:42:59.304Z,474.214
2022-08-21T08:43:59.113Z,481.929
2022-08-21T08:44:59.147Z,518.857
2022-08-21T08:45:59.181Z,441.714
2022-08-21T08:46:59.215Z,355.857
2022-08-21T08:47:59.256Z,332.143
2022-08-21T08:48:59.289Z,341.643
2022-08-21T08:49:59.317Z,806.214
2022-08-21T08:50:59.350Z,496.5
2022-08-21T08:51:59.387Z,339
2022-08-21T08:52:59.574Z,406.857
2022-08-21T08:53:59.462Z,460.143
2022-08-21T08:54:59.496Z,541.143
2022-08-21T08:55:59.533Z,582.429
2022-08-21T08:56:59.571Z,506.857
2022-08-21T08:57:59.620Z,403.857
2022-08-21T08:58:59.654Z,310.429
2022-08-21T08:59:59.686Z,276.214
2022-08-21T09:00:59.805Z,331.357
2022-08-21T09:01:59.759Z,260.714
2022-08-21T09:05:59.907Z,121.929
2022-08-21T09:06:59.974Z,142.929
2022-08-21T09:07:59.989Z,120.143
2022-08-21T09:09:00.024Z,109.429
2022-08-21T09:10:00.064Z,69.3571
2022-08-21T09:14:00.202Z,44.5
2022-08-21T09:15:00.236Z,38.9286
2022-08-21T09:16:00.274Z,32.5
2022-08-21T09:17:00.304Z,27.5
2022-08-21T09:18:00.344Z,23.8571
2022-08-21T09:19:00.372Z,24.9286
2022-08-21T09:22:00.514Z,20
2022-08-21T09:23:00.857Z,17.4286
2022-08-21T09:24:00.564Z,15.9286
2022-08-21T09:25:00.615Z,13.7143
2022-08-21T09:26:00.644Z,13.1429
2022-08-21T09:27:00.699Z,13.9286
2022-08-21T09:28:00.714Z,16.2143
2022-08-21T09:29:00.767Z,11.9286
2022-08-21T09:32:00.915Z,9.14286
2022-08-21T09:33:01.279Z,9.92857
2022-08-21T09:34:00.957Z,9.35714
2022-08-21T09:35:00.998Z,8.35714
2022-08-21T09:36:01.026Z,9.71429
2022-08-21T09:37:01.085Z,8.71429
2022-08-21T09:38:01.124Z,8
2022-08-21T09:39:01.136Z,8.42857
2022-08-21T09:40:01.239Z,6.14286
2022-08-21T09:41:01.227Z,6.21429
2022-08-21T09:44:01.317Z,5.35714
2022-08-21T09:45:01.383Z,5.85714
2022-08-21T09:46:01.396Z,5.5
2022-08-21T09:47:01.435Z,5.21429
2022-08-21T09:48:01.469Z,4.64286
2022-08-21T09:49:02.084Z,4.85714
2022-08-21T09:50:01.558Z,4.5
2022-08-21T09:51:01.596Z,4.5
2022-08-21T09:52:01.635Z,4.35714
2022-08-21T09:53:01.679Z,4.14286
2022-08-21T09:54:01.724Z,4.21429
2022-08-21T09:55:01.759Z,4.64286
2022-08-21T09:56:01.797Z,3.5
2022-08-21T09:57:01.832Z,3.21429
2022-08-21T10:00:17.422Z,4.42857
2022-08-21T10:01:02.069Z,4.21429
2022-08-21T10:02:02.035Z,3.85714
2022-08-21T10:03:02.075Z,4.42857
2022-08-21T10:04:02.117Z,3.92857
2022-08-21T10:05:02.159Z,3.35714
2022-08-21T10:06:02.199Z,4.92857
2022-08-21T10:07:02.232Z,3.5
2022-08-21T10:08:02.270Z,2.85714
2022-08-21T10:11:34.032Z,3.14286
2022-08-21T10:12:02.424Z,3.35714
2022-08-21T10:13:02.459Z,3.14286
2022-08-21T10:14:02.677Z,3.21429
2022-08-21T10:15:06.507Z,3
2022-08-21T10:16:02.580Z,3.5
2022-08-21T10:17:02.613Z,3.14286
2022-08-21T10:18:02.654Z,4.71429
2022-08-21T10:19:02.712Z,29.9286
2022-08-21T10:20:02.735Z,306.357
2022-08-21T10:21:02.775Z,354.143
2022-08-21T10:22:02.811Z,672.5
2022-08-21T10:23:02.840Z,635.357
2022-08-21T10:24:02.877Z,723
2022-08-21T10:25:02.946Z,784.429
2022-08-21T10:26:13.546Z,728.929
2022-08-21T10:27:03.009Z,705.5
2022-08-21T10:28:03.056Z,652.714
2022-08-21T10:29:03.075Z,624
2022-08-21T10:30:03.113Z,698.5
2022-08-21T10:31:03.154Z,749.143
2022-08-21T10:32:03.191Z,765.643
2022-08-21T10:33:03.228Z,793.929
2022-08-21T10:34:03.267Z,789.5
2022-08-21T10:35:03.303Z,820.714
2022-08-21T10:36:03.342Z,882.714
2022-08-21T10:37:10.523Z,872.714
2022-08-21T10:38:03.432Z,840.857
2022-08-21T10:40:03.628Z,847.643
2022-08-21T10:41:03.562Z,884.857
2022-08-21T10:42:03.601Z,933.5
2022-08-21T10:43:03.615Z,950.357
2022-08-21T10:44:03.668Z,926.214
2022-08-21T10:50:03.885Z,669.429
2022-08-21T10:51:03.917Z,567.929
2022-08-21T10:52:03.953Z,592.929
2022-08-21T10:53:04.013Z,530.357
2022-08-21T10:54:04.037Z,522.214
2022-08-21T10:55:04.059Z,481
2022-08-21T10:59:04.212Z,349
2022-08-21T11:00:04.245Z,240.357
2022-08-21T11:01:04.355Z,295.357
2022-08-21T11:02:04.320Z,274.143
2022-08-21T11:03:04.359Z,250.143
2022-08-21T11:04:04.394Z,224.214
2022-08-21T11:05:04.435Z,181.643
2022-08-21T11:06:04.472Z,187.714
2022-08-21T11:07:06.575Z,173.857
2022-08-21T11:08:04.554Z,151.643
2022-08-21T11:09:04.583Z,146.929
2022-08-21T11:10:05.103Z,132.429
2022-08-21T11:11:04.659Z,125.714
2022-08-21T11:12:12.196Z,99.6429
2022-08-21T11:13:04.729Z,96.5
2022-08-21T11:14:04.770Z,67
2022-08-21T11:15:04.805Z,81.8571
2022-08-21T11:16:04.847Z,67.8571
2022-08-21T11:17:04.889Z,56.5
2022-08-21T11:18:04.926Z,58.3571
2022-08-21T11:19:04.961Z,60.8571
2022-08-21T11:20:04.992Z,50.7143
2022-08-21T11:21:05.025Z,55.6429
2022-08-21T11:22:05.157Z,47.8571
2022-08-21T11:23:05.367Z,45
2022-08-21T11:24:05.822Z,43.3571
2022-08-21T11:25:05.183Z,34
2022-08-21T11:26:05.224Z,46.6429
2022-08-21T11:27:05.256Z,40.8571
2022-08-21T11:28:05.291Z,40.9286
2022-08-21T11:29:05.332Z,39.5
2022-08-21T11:30:05.369Z,36
2022-08-21T11:31:05.393Z,35.3571
2022-08-21T11:32:05.430Z,34.4286
2022-08-21T11:33:05.471Z,28.3571
2022-08-21T11:34:05.510Z,30.1429
2022-08-21T11:35:05.543Z,28.6429
2022-08-21T11:36:05.581Z,25.8571
2022-08-21T11:37:05.623Z,25.6429
2022-08-21T11:38:05.662Z,28.7143
2022-08-21T11:39:05.701Z,28.1429
2022-08-21T11:40:05.827Z,21
2022-08-21T11:41:05.781Z,22.2143
2022-08-21T11:42:08.846Z,22.2143
2022-08-21T11:43:05.877Z,17.4286
2022-08-21T11:44:05.920Z,18.7143
2022-08-21T11:45:05.934Z,17.2143
2022-08-21T11:46:05.961Z,14.8571
2022-08-21T11:47:06.001Z,17.2143
2022-08-21T11:48:06.042Z,18.6429
2022-08-21T11:49:06.084Z,17.2143
2022-08-21T11:50:06.122Z,13.2143
2022-08-21T11:51:06.164Z,15.2143
2022-08-21T11:52:06.198Z,16
2022-08-21T11:53:06.231Z,14.1429
2022-08-21T11:54:07.306Z,14.1429
2022-08-21T11:55:06.304Z,12.9286
2022-08-21T11:56:06.337Z,12.7143
2022-08-21T11:57:06.399Z,14
2022-08-21T11:58:06.417Z,10.8571
2022-08-21T11:59:06.454Z,9.92857
2022-08-21T12:00:06.495Z,10.9286
2022-08-21T12:01:06.527Z,10
2022-08-21T12:02:06.620Z,11.7143
2022-08-21T12:03:06.598Z,11.2143
2022-08-21T12:04:06.632Z,10.1429
2022-08-21T12:05:08.647Z,9.71429
2022-08-21T12:06:06.709Z,9.35714
2022-08-21T12:07:06.760Z,8.35714
2022-08-21T12:08:06.782Z,8.14286
2022-08-21T12:09:06.824Z,7.71429
2022-08-21T12:10:06.960Z,7.92857
2022-08-21T12:11:06.904Z,8.14286
2022-08-21T12:12:06.937Z,6.71429
2022-08-21T12:13:06.976Z,6.42857
2022-08-21T12:14:07.021Z,7.21429
2022-08-21T12:15:07.082Z,6.85714
2022-08-21T12:16:07.094Z,6.14286
2022-08-21T12:17:07.133Z,6.35714
2022-08-21T12:18:07.169Z,5.92857
2022-08-21T12:19:07.219Z,6
2022-08-21T12:20:07.241Z,5.71429
2022-08-21T12:21:07.277Z,6.5
2022-08-21T12:22:07.319Z,5.85714
2022-08-21T12:23:07.388Z,5.85714
2022-08-21T12:24:07.410Z,5.85714
2022-08-21T12:25:07.434Z,5.5
2022-08-21T12:26:07.480Z,5.42857
2022-08-21T12:27:07.512Z,5.35714
2022-08-21T12:28:07.569Z,4.85714
2022-08-21T12:29:07.591Z,4.64286
2022-08-21T12:30:07.635Z,4.64286
2022-08-21T12:31:07.672Z,4.71429
2022-08-21T12:32:07.720Z,4.42857
2022-08-21T12:33:07.785Z,4.35714
2022-08-21T12:34:07.789Z,4.64286
2022-08-21T12:35:07.837Z,4.85714
2022-08-21T12:36:07.875Z,4.14286
2022-08-21T12:37:07.912Z,4
2022-08-21T12:38:07.956Z,3.85714
2022-08-21T12:39:07.993Z,3.85714
2022-08-21T12:40:08.079Z,3.71429
2022-08-21T12:41:08.075Z,3.21429
2022-08-21T12:42:08.111Z,3.64286
2022-08-21T12:43:08.149Z,3.71429
2022-08-21T12:44:08.192Z,3.64286
2022-08-21T12:45:08.260Z,3.85714
2022-08-21T12:46:08.266Z,3.35714
2022-08-21T12:47:08.299Z,3.64286
2022-08-21T12:48:08.333Z,3.64286
2022-08-21T12:49:08.372Z,3.42857
2022-08-21T12:50:08.416Z,3.14286
2022-08-21T12:51:08.443Z,3.42857
2022-08-21T12:52:08.482Z,3.14286
2022-08-21T12:53:20.180Z,3